Tiempo atmosférico en la estación meteorológica de Ejea De Los Caballeros, Zaragoza (321 m.)



Fecha
DESCASC
Temp. máxima en grados centígrados (hora)
DESCASC
Temp. mínima en grados centígrados (hora)
DESCASC
Temp. media en grados centígrados
DESCASC
Racha de viento máxima en m/sg (hora)
DESCASC
Velocidad máxima media en intervalos de 10 minutos(hora)
DESCASC
Precipitaciones diarias en mm
DESCASC
Precipitaciones de 00:00 a 06:00 en mm
DESCASC
Precipitaciones de 06:00 a 12:00 en mm
DESCASC
Precipitaciones de 12:00 a 18:00 en mm
DESCASC
Precipitaciones de 18:00 a 24:00 en mm
DESCASC
18-01-2019 9.1 (15:40) 1.8 (08:40) 5.5 5.83 (00:10) 2.22 (10:50) 0 0 0 0 0
17-01-2019 11.2 (16:10) 0.5 (00:00) 5.8 6.94 (12:00) 3.06 (11:50) 0 0 0 0 0
16-01-2019 5.8 (16:00) 0 (09:00) 2.9 4.17 (02:10) 1.67 (17:00) 0 0 0 0 0
15-01-2019 13.3 (16:40) -1.2 (-00:0) 6.1 5.83 (00:50) 2.5 (00:10) 0 0 0 0 0
14-01-2019 13.9 (13:50) 6.4 (00:00) 10.1 11.67 (14:40) 5 (14:40) 0 0 0 0 0
13-01-2019 13.1 (13:30) 6.6 (02:40) 9.9 11.39 (13:40) 4.44 (23:30) 0 0 0 0 0
12-01-2019 11.4 (14:40) 3.4 (00:00) 7.4 10.83 (15:10) 4.72 (14:20) 0 0 0 0 0
11-01-2019 8.7 (14:50) 0.2 (00:00) 4.4 12.5 (14:20) 5.28 (14:20) 0 0 0 0 0
10-01-2019 7.3 (13:40) 0.9 (00:00) 4.1 10.83 (12:50) 4.72 (14:20) 0 0 0 0 0
09-01-2019 12.1 (12:30) 5.1 (00:00) 8.6 12.78 (13:20) 5.83 (15:00) 0 0 0 0 0
08-01-2019 10.5 (15:10) 1.7 (00:00) 6.1 11.67 (13:10) 5 (15:00) 0 0 0 0 0
07-01-2019 9 (14:30) 1.6 (00:00) 5.3 10 (11:20) 3.89 (04:00) 0 0 0 0 0
06-01-2019 13.8 (15:10) 1.5 (00:00) 7.7 8.89 (15:10) 3.61 (16:00) 0 0 0 0 0
05-01-2019 15.3 (15:30) -5 (-00:0) 5.2 6.67 (16:50) 3.06 (20:40) 0 0 0 0 0
04-01-2019 7 (16:30) -6 (-00:0) 0.5 5.83 (20:20) 2.22 (20:20) 0 0 0 0 0
03-01-2019 8 (15:30) -5 (-00:0) 1.5 2.78 (11:50) 1.39 (11:10) 0 0 0 0 0
02-01-2019 10.5 (15:30) -3 (-00:0) 3.8 10 (11:50) 3.61 (13:40) 0 0 0 0 0
01-01-2019 10.1 (16:10) -4.1 (08:40) 3 2.5 (01:20) 1.39 (14:40) 0 0 0 0 0
31-12-2018 9.9 (16:30) -3.1 (-00:0) 3.4 3.33 (14:00) 1.94 (14:10) 0 0 0 0 0
30-12-2018 11.9 (16:30) -2.6 (-00:0) 4.6 3.61 (09:00) 1.39 (11:40) 0 0 0 0 0
29-12-2018 13.9 (15:10) 0.1 (00:00) 7 8.33 (15:30) 2.78 (15:30) 0 0 0 0 0
28-12-2018 11.5 (16:30) 3.5 (09:40) 7.5 3.61 (20:30) 1.67 (19:50) 0 0 0 0 0
27-12-2018 5.8 (00:00) 5 (00:00) 5.4 2.5 (11:10) 1.11 (11:30) 0 0 0 0 0
26-12-2018 7 (16:20) 4.6 (00:00) 5.8 2.5 (20:00) 1.11 (07:50) 0.6 0.2 0.4 0 0
25-12-2018 6.4 (14:10) 2.6 (00:00) 4.5 5 (17:00) 1.39 (18:20) 0 0 0 0 0
23-12-2018 13.4 (16:30) 2.8 (00:00) 8.1 2.22 (08:00) 1.11 (13:30) 0 0 0 0 0
22-12-2018 15.6 (15:30) 1.9 (08:50) 8.8 4.72 (13:10) 2.22 (13:10) 0 0 0 0 0
21-12-2018 14.1 (15:10) 2.9 (03:20) 8.5 3.61 (10:50) 1.67 (04:10) 0 0 0 0 0

Gráficas

Temp. máximas Temp. mínimas Temp. medias Precipitaciones Rachas de viento máximas Velocidades máximas media en intervalos de 10 minutos

Datos horarios

Fecha y hora oficial Temperatura (ºC) Velocidad del viento (km/h) Dirección del viento Racha (km/h) Dirección de racha Precipitación (mm) Presión (hPa) Tendencia (hPa) Humedad (%)
2019-01-19 23:00:00 3 6 Este 19 Nordeste 0.8 -- -- 94
2019-01-19 22:00:00 3.2 8 Este 23 Este 0.4 -- -- 93
2019-01-19 21:00:00 3.6 7 Este 21 Este 0 -- -- 91
2019-01-19 20:00:00 4.2 8 Este 26 Este 0.2 -- -- 88
2019-01-19 19:00:00 5.3 8 Este 21 Este 0 -- -- 83
2019-01-19 18:00:00 7.2 7 Este 23 Este 0 -- -- 73
2019-01-19 17:00:00 9.8 4 Este 13 Este 0 -- -- 63
2019-01-19 16:00:00 10.5 5 Sudeste 14 Sudeste 0 -- -- 59
2019-01-19 15:00:00 9.6 5 Sudeste 20 Sudeste 0 -- -- 61
2019-01-19 14:00:00 9.6 5 Sur 15 Sudoeste 0 -- -- 60
2019-01-19 13:00:00 8.6 5 Sudoeste 12 Sudoeste 0 -- -- 67
2019-01-19 12:00:00 6.8 5 Sudoeste 11 Sudoeste 0 -- -- 74
2019-01-19 11:00:00 4 2 Sudoeste 4 Oeste 0 -- -- 85
2019-01-19 10:00:00 0.5 2 Nordeste 4 Nordeste 0 -- -- 93
2019-01-19 09:00:00 0.3 0 Calma 5 Sudoeste 0 -- -- 91
2019-01-19 08:00:00 0.6 2 Oeste 6 Sudoeste 0 -- -- 91
2019-01-19 07:00:00 0.6 3 Sudoeste 7 Sudoeste 0 -- -- 92
2019-01-19 06:00:00 -0.1 0 Calma 2 Sudoeste 0 -- -- 93
2019-01-19 05:00:00 -0.7 0 Calma 2 Nordeste 0 -- -- 92
2019-01-19 04:00:00 -0.7 0 Calma 3 Nordeste 0 -- -- 92
2019-01-19 03:00:00 -0.9 0 Calma 3 Nordeste 0 -- -- 90
2019-01-19 02:00:00 -0.1 0 Calma 2 Sudoeste 0 -- -- 87
2019-01-19 01:00:00 1.2 0 Calma 3 Sudoeste 0 -- -- 86
2019-01-19 00:00:00 2.3 0 Calma 4 Sudoeste 0 -- -- 82
2019-01-18 23:00:00 3.8 3 Sudoeste 9 Sudoeste 0 -- -- 78
2019-01-18 22:00:00 5.1 4 Oeste 8 Oeste 0 -- -- 76
2019-01-18 21:00:00 6.2 3 Oeste 8 Sudoeste 0 -- -- 73
2019-01-18 20:00:00 6.6 2 Oeste 8 Oeste 0 -- -- 70
2019-01-18 19:00:00 7.1 4 Oeste 10 Oeste 0 -- -- 68
2019-01-18 18:00:00 8.1 3 Oeste 16 Oeste 0 -- -- 63
2019-01-18 17:00:00 8.8 5 Oeste 15 Oeste 0 -- -- 61
2019-01-18 16:00:00 9 5 Oeste 18 Noroeste 0 -- -- 61
2019-01-18 15:00:00 8.3 6 Norte 17 Norte 0 -- -- 64
2019-01-18 14:00:00 8.6 5 Oeste 18 Oeste 0 -- -- 65
2019-01-18 13:00:00 7.1 7 Oeste 19 Noroeste 0 -- -- 72
2019-01-18 12:00:00 6.2 6 Oeste 19 Oeste 0 -- -- 76
2019-01-18 11:00:00 5.1 8 Oeste 18 Oeste 0 -- -- 83
2019-01-18 10:00:00 2.8 5 Oeste 13 Noroeste 0 -- -- 90
2019-01-18 09:00:00 1.8 2 Oeste 7 Norte 0 -- -- 90
2019-01-18 08:00:00 2 2 Norte 9 Oeste 0 -- -- 88
2019-01-18 07:00:00 2 4 Oeste 9 Oeste 0 -- -- 88
2019-01-18 06:00:00 2.5 5 Oeste 17 Noroeste 0 -- -- 87
2019-01-18 05:00:00 2 4 Oeste 16 Noroeste 0 -- -- 88
2019-01-18 04:00:00 2.6 0 Calma 12 Noroeste 0 -- -- 85
2019-01-18 03:00:00 3.4 4 Norte 19 Oeste 0 -- -- 84
2019-01-18 02:00:00 4 7 Oeste 16 Oeste 0 -- -- 83
2019-01-18 01:00:00 4.2 6 Oeste 21 Noroeste 0 -- -- 82
2019-01-18 00:00:00 4.2 6 Oeste 20 Noroeste 0 -- -- 82
2019-01-17 23:00:00 4.6 7 Oeste 18 Oeste 0 -- -- 80
2019-01-17 22:00:00 4.9 3 Sudoeste 11 Noroeste 0 -- -- 79
2019-01-17 21:00:00 5.3 4 Oeste 16 Oeste 0 -- -- 74
2019-01-17 20:00:00 5.7 5 Oeste 18 Oeste 0 -- -- 73
2019-01-17 19:00:00 7.2 5 Oeste 15 Oeste 0 -- -- 68
2019-01-17 18:00:00 8.4 4 Oeste 23 Noroeste 0 -- -- 64
2019-01-17 17:00:00 10.5 9 Norte 23 Noroeste 0 -- -- 55
2019-01-17 16:00:00 10.9 8 Noroeste 23 Oeste 0 -- -- 52
2019-01-17 15:00:00 9.9 7 Oeste 21 Oeste 0 -- -- 60
2019-01-17 14:00:00 9.4 6 Oeste 24 Norte 0 -- -- 67
2019-01-17 13:00:00 9.3 8 Noroeste 24 Noroeste 0 -- -- 66
2019-01-17 12:00:00 8 10 Oeste 25 Noroeste 0 -- -- 79
2019-01-17 11:00:00 4.5 5 Oeste 12 Oeste 0 -- -- 98
2019-01-17 10:00:00 1.6 2 Sur 8 Sudoeste 0 -- -- 97
2019-01-17 09:00:00 0.7 3 Sudoeste 8 Sudoeste 0 -- -- 96
2019-01-17 08:00:00 0.5 4 Sudoeste 8 Sudoeste 0 -- -- 96
2019-01-17 07:00:00 0.5 4 Oeste 9 Oeste 0 -- -- 96
2019-01-17 06:00:00 1.2 5 Oeste 10 Sudoeste 0 -- -- 96
2019-01-17 05:00:00 1.6 4 Oeste 8 Oeste 0 -- -- 95
2019-01-17 04:00:00 2.1 3 Oeste 9 Sudoeste 0 -- -- 95
2019-01-17 03:00:00 2.7 3 Oeste 8 Sudoeste 0 -- -- 93
2019-01-17 02:00:00 3.1 4 Oeste 9 Sudoeste 0 -- -- 93
2019-01-17 01:00:00 3.4 5 Oeste 10 Sudoeste 0 -- -- 92
2019-01-17 00:00:00 3.7 4 Sudoeste 10 Sudoeste 0 -- -- 93
2019-01-16 23:00:00 3.4 4 Oeste 10 Oeste 0 -- -- 93
2019-01-16 22:00:00 3.6 3 Noroeste 12 Oeste 0 -- -- 91
2019-01-16 21:00:00 4 3 Oeste 12 Oeste 0 -- -- 91
2019-01-16 20:00:00 4.2 5 Oeste 12 Sudoeste 0 -- -- 91
2019-01-16 19:00:00 3.9 5 Sudoeste 10 Sudoeste 0 -- -- 91
2019-01-16 18:00:00 4 4 Sudoeste 14 Sudoeste 0 -- -- 91
2019-01-16 17:00:00 4.9 6 Sudoeste 11 Sudoeste 0 -- -- 86
2019-01-16 16:00:00 5.8 4 Sur 11 Sudoeste 0 -- -- 85
2019-01-16 15:00:00 4.8 4 Sudoeste 10 Sudoeste 0 -- -- 88
2019-01-16 14:00:00 4.5 5 Sudoeste 10 Sudoeste 0 -- -- 88
2019-01-16 13:00:00 3.4 4 Sudoeste 8 Oeste 0 -- -- 93